sensor_id;sensor_type;location;lat;lon;timestamp;pressure;altitude;pressure_sealevel;temperature;humidity
74346;BME280;62776;50.518;6.732;2022-10-19T00:00:49;97671.69;;;10.54;100.00
74346;BME280;62776;50.518;6.732;2022-10-19T00:03:36;97666.44;;;10.49;100.00
74346;BME280;62776;50.518;6.732;2022-10-19T00:06:28;97664.66;;;10.44;100.00
74346;BME280;62776;50.518;6.732;2022-10-19T00:09:17;97665.53;;;10.44;100.00
74346;BME280;62776;50.518;6.732;2022-10-19T00:12:04;97659.47;;;10.44;100.00
74346;BME280;62776;50.518;6.732;2022-10-19T00:14:50;97665.53;;;10.44;100.00
74346;BME280;62776;50.518;6.732;2022-10-19T00:17:36;97664.66;;;10.44;100.00
74346;BME280;62776;50.518;6.732;2022-10-19T00:20:22;97655.97;;;10.42;100.00
74346;BME280;62776;50.518;6.732;2022-10-19T00:23:08;97659.47;;;10.42;100.00
74346;BME280;62776;50.518;6.732;2022-10-19T00:25:55;97659.41;;;10.35;100.00
74346;BME280;62776;50.518;6.732;2022-10-19T00:28:42;97660.25;;;10.34;100.00
74346;BME280;62776;50.518;6.732;2022-10-19T00:31:28;97660.22;;;10.31;100.00
74346;BME280;62776;50.518;6.732;2022-10-19T00:34:14;97659.34;;;10.30;100.00
74346;BME280;62776;50.518;6.732;2022-10-19T00:37:00;97647.19;;;10.28;100.00
74346;BME280;62776;50.518;6.732;2022-10-19T00:39:46;97655.84;;;10.25;100.00
74346;BME280;62776;50.518;6.732;2022-10-19T00:42:32;97651.47;;;10.20;100.00
74346;BME280;62776;50.518;6.732;2022-10-19T00:45:18;97648.00;;;10.16;100.00
74346;BME280;62776;50.518;6.732;2022-10-19T00:48:05;97641.00;;;10.14;100.00
74346;BME280;62776;50.518;6.732;2022-10-19T00:50:53;97647.91;;;10.10;100.00
74346;BME280;62776;50.518;6.732;2022-10-19T00:53:41;97640.06;;;10.08;100.00
74346;BME280;62776;50.518;6.732;2022-10-19T00:56:27;97640.91;;;10.06;100.00
74346;BME280;62776;50.518;6.732;2022-10-19T00:59:15;97632.19;;;9.98;100.00
74346;BME280;62776;50.518;6.732;2022-10-19T01:02:04;97633.88;;;9.93;100.00
74346;BME280;62776;50.518;6.732;2022-10-19T01:04:51;97633.00;;;9.91;100.00
74346;BME280;62776;50.518;6.732;2022-10-19T01:07:38;97639.91;;;9.90;100.00
74346;BME280;62776;50.518;6.732;2022-10-19T01:33:17;97644.69;;;9.51;100.00
74346;BME280;62776;50.518;6.732;2022-10-19T01:36:40;97645.28;;;9.29;100.00
74346;BME280;62776;50.518;6.732;2022-10-19T01:42:45;97629.91;;;9.44;100.00
74346;BME280;62776;50.518;6.732;2022-10-19T01:46:24;97627.88;;;9.17;100.00
74346;BME280;62776;50.518;6.732;2022-10-19T01:49:35;97624.63;;;9.35;100.00
74346;BME280;62776;50.518;6.732;2022-10-19T01:52:25;97622.84;;;9.34;100.00
74346;BME280;62776;50.518;6.732;2022-10-19T01:55:13;97620.28;;;9.35;100.00
74346;BME280;62776;50.518;6.732;2022-10-19T01:58:07;97619.34;;;9.27;100.00
74346;BME280;62776;50.518;6.732;2022-10-19T02:00:57;97613.34;;;9.33;100.00
74346;BME280;62776;50.518;6.732;2022-10-19T02:03:46;97611.63;;;9.35;100.00
74346;BME280;62776;50.518;6.732;2022-10-19T02:06:33;97613.38;;;9.36;100.00
74346;BME280;62776;50.518;6.732;2022-10-19T02:09:20;97608.16;;;9.33;100.00
74346;BME280;62776;50.518;6.732;2022-10-19T02:12:09;97613.28;;;9.27;100.00
74346;BME280;62776;50.518;6.732;2022-10-19T02:14:59;97603.72;;;9.23;100.00
74346;BME280;62776;50.518;6.732;2022-10-19T02:17:49;97603.69;;;9.21;100.00
74346;BME280;62776;50.518;6.732;2022-10-19T02:20:37;97603.75;;;9.24;100.00
74346;BME280;62776;50.518;6.732;2022-10-19T02:23:25;97602.81;;;9.21;100.00
74346;BME280;62776;50.518;6.732;2022-10-19T02:26:12;97598.53;;;9.24;100.00
74346;BME280;62776;50.518;6.732;2022-10-19T02:28:58;97595.97;;;9.26;100.00
74346;BME280;62776;50.518;6.732;2022-10-19T02:31:45;97597.72;;;9.27;100.00
74346;BME280;62776;50.518;6.732;2022-10-19T02:34:31;97581.31;;;9.28;100.00
74346;BME280;62776;50.518;6.732;2022-10-19T02:37:18;97577.00;;;9.28;100.00
74346;BME280;62776;50.518;6.732;2022-10-19T02:40:05;97580.47;;;9.30;100.00
74346;BME280;62776;50.518;6.732;2022-10-19T02:42:55;97570.00;;;9.24;100.00
74346;BME280;62776;50.518;6.732;2022-10-19T02:45:48;97570.84;;;9.22;100.00
74346;BME280;62776;50.518;6.732;2022-10-19T02:48:37;97575.13;;;9.18;100.00
74346;BME280;62776;50.518;6.732;2022-10-19T02:51:39;97568.19;;;9.16;100.00
74346;BME280;62776;50.518;6.732;2022-10-19T02:54:25;97563.03;;;9.20;100.00
74346;BME280;62776;50.518;6.732;2022-10-19T02:57:21;97556.88;;;9.11;100.00
74346;BME280;62776;50.518;6.732;2022-10-19T03:00:08;97559.59;;;9.20;100.00
74346;BME280;62776;50.518;6.732;2022-10-19T03:02:54;97564.75;;;9.17;100.00
74346;BME280;62776;50.518;6.732;2022-10-19T03:05:40;97550.00;;;9.13;100.00
74346;BME280;62776;50.518;6.732;2022-10-19T03:08:26;97554.28;;;9.11;100.00
74346;BME280;62776;50.518;6.732;2022-10-19T03:11:12;97551.69;;;9.11;100.00
74346;BME280;62776;50.518;6.732;2022-10-19T03:13:58;97546.47;;;9.09;100.00
74346;BME280;62776;50.518;6.732;2022-10-19T03:16:44;97549.16;;;9.14;100.00
74346;BME280;62776;50.518;6.732;2022-10-19T03:19:31;97553.50;;;9.16;100.00
74346;BME280;62776;50.518;6.732;2022-10-19T03:22:17;97550.91;;;9.16;100.00
74346;BME280;62776;50.518;6.732;2022-10-19T03:25:03;97556.94;;;9.14;100.00
74346;BME280;62776;50.518;6.732;2022-10-19T03:27:50;97550.88;;;9.12;100.00
74346;BME280;62776;50.518;6.732;2022-10-19T03:30:36;97551.75;;;9.15;100.00
74346;BME280;62776;50.518;6.732;2022-10-19T03:33:22;97547.44;;;9.16;100.00
74346;BME280;62776;50.518;6.732;2022-10-19T03:36:15;97546.47;;;9.08;100.00
74346;BME280;62776;50.518;6.732;2022-10-19T03:39:05;97555.09;;;9.07;100.00
74346;BME280;62776;50.518;6.732;2022-10-19T03:41:51;97544.72;;;9.07;100.00
74346;BME280;62776;50.518;6.732;2022-10-19T03:44:37;97547.28;;;9.02;100.00
74346;BME280;62776;50.518;6.732;2022-10-19T03:47:23;97549.84;;;8.99;100.00
74346;BME280;62776;50.518;6.732;2022-10-19T03:50:10;97555.94;;;9.03;100.00
74346;BME280;62776;50.518;6.732;2022-10-19T03:52:58;97547.28;;;9.02;100.00
74346;BME280;62776;50.518;6.732;2022-10-19T03:55:44;97541.22;;;9.00;100.00
74346;BME280;62776;50.518;6.732;2022-10-19T03:58:33;97547.22;;;8.98;100.00
74346;BME280;62776;50.518;6.732;2022-10-19T04:01:21;97542.06;;;8.99;100.00
74346;BME280;62776;50.518;6.732;2022-10-19T04:04:13;97551.41;;;8.86;100.00
74346;BME280;62776;50.518;6.732;2022-10-19T04:07:00;97553.19;;;8.90;100.00
74346;BME280;62776;50.518;6.732;2022-10-19T04:09:46;97553.19;;;8.90;100.00
74346;BME280;62776;50.518;6.732;2022-10-19T04:12:32;97549.72;;;8.90;100.00
74346;BME280;62776;50.518;6.732;2022-10-19T04:15:19;97542.81;;;8.90;100.00
74346;BME280;62776;50.518;6.732;2022-10-19T04:18:05;97543.69;;;8.89;100.00
74346;BME280;62776;50.518;6.732;2022-10-19T04:20:58;97541.81;;;8.79;100.00
74346;BME280;62776;50.518;6.732;2022-10-19T04:23:45;97540.19;;;8.87;100.00
74346;BME280;62776;50.518;6.732;2022-10-19T04:26:32;97531.56;;;8.88;100.00
74346;BME280;62776;50.518;6.732;2022-10-19T04:29:20;97533.31;;;8.89;100.00
74346;BME280;62776;50.518;6.732;2022-10-19T04:32:07;97531.59;;;8.92;100.00
74346;BME280;62776;50.518;6.732;2022-10-19T04:34:53;97531.59;;;8.93;100.00
74346;BME280;62776;50.518;6.732;2022-10-19T04:37:39;97530.72;;;8.91;100.00
74346;BME280;62776;50.518;6.732;2022-10-19T04:40:25;97537.59;;;8.87;100.00
74346;BME280;62776;50.518;6.732;2022-10-19T04:43:11;97539.31;;;8.85;100.00
74346;BME280;62776;50.518;6.732;2022-10-19T04:46:05;97539.22;;;8.78;100.00
74346;BME280;62776;50.518;6.732;2022-10-19T04:48:52;97543.66;;;8.86;100.00
74346;BME280;62776;50.518;6.732;2022-10-19T04:51:39;97536.75;;;8.88;100.00
74346;BME280;62776;50.518;6.732;2022-10-19T04:54:25;97537.63;;;8.90;100.00
74346;BME280;62776;50.518;6.732;2022-10-19T04:57:11;97535.00;;;8.87;100.00
74346;BME280;62776;50.518;6.732;2022-10-19T04:59:57;97537.53;;;8.84;100.00
74346;BME280;62776;50.518;6.732;2022-10-19T05:02:44;97535.81;;;8.83;100.00
74346;BME280;62776;50.518;6.732;2022-10-19T05:05:32;97528.94;;;8.84;100.00
74346;BME280;62776;50.518;6.732;2022-10-19T05:08:18;97526.38;;;8.90;100.00
74346;BME280;62776;50.518;6.732;2022-10-19T05:11:09;97522.88;;;8.83;100.00
74346;BME280;62776;50.518;6.732;2022-10-19T05:13:56;97531.56;;;8.88;100.00
74346;BME280;62776;50.518;6.732;2022-10-19T05:16:42;97525.53;;;8.89;100.00
74346;BME280;62776;50.518;6.732;2022-10-19T05:19:28;97533.34;;;8.96;100.00
74346;BME280;62776;50.518;6.732;2022-10-19T05:22:14;97530.81;;;8.97;100.00
74346;BME280;62776;50.518;6.732;2022-10-19T05:25:00;97533.34;;;8.96;100.00
74346;BME280;62776;50.518;6.732;2022-10-19T05:27:50;97531.56;;;8.88;100.00
74346;BME280;62776;50.518;6.732;2022-10-19T05:30:37;97531.59;;;8.92;100.00
74346;BME280;62776;50.518;6.732;2022-10-19T05:33:24;97533.31;;;8.89;100.00
74346;BME280;62776;50.518;6.732;2022-10-19T05:36:24;97517.53;;;8.71;100.00
74346;BME280;62776;50.518;6.732;2022-10-19T05:39:15;97521.03;;;8.73;100.00
74346;BME280;62776;50.518;6.732;2022-10-19T05:42:02;97509.81;;;8.77;100.00
74346;BME280;62776;50.518;6.732;2022-10-19T05:44:48;97517.56;;;8.74;100.00
74346;BME280;62776;50.518;6.732;2022-10-19T05:47:34;97507.16;;;8.71;100.00
74346;BME280;62776;50.518;6.732;2022-10-19T05:50:20;97520.16;;;8.73;100.00
74346;BME280;62776;50.518;6.732;2022-10-19T05:53:06;97508.88;;;8.69;100.00
74346;BME280;62776;50.518;6.732;2022-10-19T05:55:52;97507.06;;;8.64;100.00
74346;BME280;62776;50.518;6.732;2022-10-19T05:58:38;97502.69;;;8.60;100.00
74346;BME280;62776;50.518;6.732;2022-10-19T06:01:25;97500.91;;;8.56;100.00
74346;BME280;62776;50.518;6.732;2022-10-19T06:04:12;97507.81;;;8.54;100.00
74346;BME280;62776;50.518;6.732;2022-10-19T06:07:00;97509.50;;;8.52;100.00
74346;BME280;62776;50.518;6.732;2022-10-19T06:09:46;97513.81;;;8.51;100.00
74346;BME280;62776;50.518;6.732;2022-10-19T06:12:32;97515.50;;;8.49;100.00
74346;BME280;62776;50.518;6.732;2022-10-19T06:15:18;97514.63;;;8.46;100.00
74346;BME280;62776;50.518;6.732;2022-10-19T06:18:08;97511.13;;;8.44;100.00
74346;BME280;62776;50.518;6.732;2022-10-19T06:20:59;97511.09;;;8.42;100.00
74346;BME280;62776;50.518;6.732;2022-10-19T06:23:50;97521.34;;;8.33;100.00
74346;BME280;62776;50.518;6.732;2022-10-19T06:26:36;97510.19;;;8.37;100.00
74346;BME280;62776;50.518;6.732;2022-10-19T06:29:22;97511.06;;;8.38;100.00
74346;BME280;62776;50.518;6.732;2022-10-19T06:32:08;97513.59;;;8.35;100.00
74346;BME280;62776;50.518;6.732;2022-10-19T06:34:54;97511.91;;;8.38;100.00
74346;BME280;62776;50.518;6.732;2022-10-19T06:37:41;97511.91;;;8.38;100.00
74346;BME280;62776;50.518;6.732;2022-10-19T06:40:27;97513.69;;;8.42;100.00
74346;BME280;62776;50.518;6.732;2022-10-19T06:43:14;97511.13;;;8.44;100.00
74346;BME280;62776;50.518;6.732;2022-10-19T06:46:04;97514.53;;;8.40;100.00
74346;BME280;62776;50.518;6.732;2022-10-19T06:51:37;97521.59;;;8.53;100.00
74346;BME280;62776;50.518;6.732;2022-10-19T06:54:25;97520.81;;;8.58;100.00
74346;BME280;62776;50.518;6.732;2022-10-19T06:57:11;97530.38;;;8.64;100.00
74346;BME280;62776;50.518;6.732;2022-10-19T06:59:57;97524.41;;;8.69;100.00
74346;BME280;62776;50.518;6.732;2022-10-19T07:02:43;97526.22;;;8.75;100.00
74346;BME280;62776;50.518;6.732;2022-10-19T07:05:29;97527.16;;;8.83;100.00
74346;BME280;62776;50.518;6.732;2022-10-19T07:08:15;97515.16;;;8.89;100.00
74346;BME280;62776;50.518;6.732;2022-10-19T07:11:05;97526.44;;;8.95;100.00
74346;BME280;62776;50.518;6.732;2022-10-19T07:13:52;97517.00;;;9.01;100.00
74346;BME280;62776;50.518;6.732;2022-10-19T07:16:38;97513.63;;;9.08;100.00
74346;BME280;62776;50.518;6.732;2022-10-19T07:19:27;97512.81;;;9.11;100.00
74346;BME280;62776;50.518;6.732;2022-10-19T07:22:13;97506.88;;;9.24;100.00
74346;BME280;62776;50.518;6.732;2022-10-19T07:24:59;97507.81;;;9.32;100.00
74346;BME280;62776;50.518;6.732;2022-10-19T07:27:45;97504.44;;;9.39;100.00
74346;BME280;62776;50.518;6.732;2022-10-19T07:30:31;97504.50;;;9.48;100.00
74346;BME280;62776;50.518;6.732;2022-10-19T07:33:18;97499.41;;;9.57;100.00
74346;BME280;62776;50.518;6.732;2022-10-19T07:36:06;97493.41;;;9.63;100.00
74346;BME280;62776;50.518;6.732;2022-10-19T07:38:52;97504.72;;;9.71;100.00
74346;BME280;62776;50.518;6.732;2022-10-19T07:41:39;97501.31;;;9.76;100.00
74346;BME280;62776;50.518;6.732;2022-10-19T07:44:25;97498.75;;;9.84;100.00
74346;BME280;62776;50.518;6.732;2022-10-19T07:47:11;97503.16;;;9.92;100.00
74346;BME280;62776;50.518;6.732;2022-10-19T07:49:57;97498.88;;;9.99;100.00
74346;BME280;62776;50.518;6.732;2022-10-19T07:52:43;97499.81;;;10.08;100.00
74346;BME280;62776;50.518;6.732;2022-10-19T07:55:29;97498.16;;;10.17;100.00
74346;BME280;62776;50.518;6.732;2022-10-19T07:58:15;97504.28;;;10.28;100.00
74346;BME280;62776;50.518;6.732;2022-10-19T08:01:08;97497.41;;;10.39;100.00
74346;BME280;62776;50.518;6.732;2022-10-19T08:03:56;97492.25;;;10.45;100.00
74346;BME280;62776;50.518;6.732;2022-10-19T08:06:42;97491.44;;;10.55;100.00
74346;BME280;62776;50.518;6.732;2022-10-19T08:09:29;97494.09;;;10.62;100.00
74346;BME280;62776;50.518;6.732;2022-10-19T08:12:15;97495.84;;;10.70;100.00
74346;BME280;62776;50.518;6.732;2022-10-19T08:15:01;97495.88;;;10.80;100.00
74346;BME280;62776;50.518;6.732;2022-10-19T08:17:47;97498.53;;;10.89;100.00
74346;BME280;62776;50.518;6.732;2022-10-19T08:20:33;97502.03;;;10.97;100.00
74346;BME280;62776;50.518;6.732;2022-10-19T08:23:19;97496.84;;;11.05;100.00
74346;BME280;62776;50.518;6.732;2022-10-19T08:26:05;97489.94;;;11.14;100.00
74346;BME280;62776;50.518;6.732;2022-10-19T08:28:51;97491.66;;;11.21;100.00
74346;BME280;62776;50.518;6.732;2022-10-19T08:31:37;97489.94;;;11.30;100.00
74346;BME280;62776;50.518;6.732;2022-10-19T08:34:23;97489.97;;;11.39;100.00
74346;BME280;62776;50.518;6.732;2022-10-19T08:37:10;97490.84;;;11.48;100.00
74346;BME280;62776;50.518;6.732;2022-10-19T08:39:56;97494.34;;;11.56;100.00
74346;BME280;62776;50.518;6.732;2022-10-19T08:48:38;97490.91;;;11.72;100.00
74346;BME280;62776;50.518;6.732;2022-10-19T08:51:30;97490.03;;;11.76;100.00
74346;BME280;62776;50.518;6.732;2022-10-19T08:54:21;97489.19;;;11.83;100.00
74346;BME280;62776;50.518;6.732;2022-10-19T08:57:39;97486.53;;;11.73;100.00
74346;BME280;62776;50.518;6.732;2022-10-19T09:04:06;97491.75;;;11.76;100.00
74346;BME280;62776;50.518;6.732;2022-10-19T09:07:24;97489.16;;;11.76;100.00
74346;BME280;62776;50.518;6.732;2022-10-19T09:15:50;97478.75;;;11.88;100.00
74346;BME280;62776;50.518;6.732;2022-10-19T09:18:37;97481.34;;;11.91;100.00
74346;BME280;62776;50.518;6.732;2022-10-19T09:21:45;97476.16;;;11.80;100.00
74346;BME280;62776;50.518;6.732;2022-10-19T09:27:39;97471.81;;;11.92;100.00
74346;BME280;62776;50.518;6.732;2022-10-19T09:30:27;97460.50;;;11.94;100.00
74346;BME280;62776;50.518;6.732;2022-10-19T09:33:22;97464.84;;;12.00;100.00
74346;BME280;62776;50.518;6.732;2022-10-19T09:36:11;97462.22;;;12.13;100.00
74346;BME280;62776;50.518;6.732;2022-10-19T09:38:57;97450.03;;;12.15;100.00
74346;BME280;62776;50.518;6.732;2022-10-19T09:42:08;97458.72;;;12.20;100.00
74346;BME280;62776;50.518;6.732;2022-10-19T09:44:51;97446.53;;;12.30;100.00
74346;BME280;62776;50.518;6.732;2022-10-19T09:47:40;97447.38;;;12.36;100.00
74346;BME280;62776;50.518;6.732;2022-10-19T09:50:29;97444.75;;;12.44;100.00
74346;BME280;62776;50.518;6.732;2022-10-19T09:53:20;97441.28;;;12.47;100.00
74346;BME280;62776;50.518;6.732;2022-10-19T09:56:08;97442.09;;;12.53;100.00
74346;BME280;62776;50.518;6.732;2022-10-19T09:59:02;97436.88;;;12.58;100.00
74346;BME280;62776;50.518;6.732;2022-10-19T10:02:19;97442.09;;;12.53;100.00
74346;BME280;62776;50.518;6.732;2022-10-19T10:05:05;97453.31;;;12.73;100.00
74346;BME280;62776;50.518;6.732;2022-10-19T10:07:54;97443.75;;;12.80;100.00
74346;BME280;62776;50.518;6.732;2022-10-19T10:11:05;97452.41;;;12.77;100.00
74346;BME280;62776;50.518;6.732;2022-10-19T10:13:53;97456.66;;;13.07;100.00
74346;BME280;62776;50.518;6.732;2022-10-19T10:16:40;97457.47;;;13.18;100.00
74346;BME280;62776;50.518;6.732;2022-10-19T10:19:28;97460.03;;;13.21;100.00
74346;BME280;62776;50.518;6.732;2022-10-19T10:22:26;97451.34;;;13.22;100.00
74346;BME280;62776;50.518;6.732;2022-10-19T10:25:17;97448.69;;;13.31;100.00
74346;BME280;62776;50.518;6.732;2022-10-19T10:28:20;97448.69;;;13.31;100.00
74346;BME280;62776;50.518;6.732;2022-10-19T10:31:06;97454.00;;;13.15;100.00
74346;BME280;62776;50.518;6.732;2022-10-19T10:33:59;97441.47;;;13.65;100.00
74346;BME280;62776;50.518;6.732;2022-10-19T10:36:52;97443.03;;;13.84;100.00
74346;BME280;62776;50.518;6.732;2022-10-19T10:39:42;97438.63;;;13.88;100.00
74346;BME280;62776;50.518;6.732;2022-10-19T10:42:35;97443.81;;;13.94;100.00
74346;BME280;62776;50.518;6.732;2022-10-19T10:45:46;97436.88;;;13.91;100.00
74346;BME280;62776;50.518;6.732;2022-10-19T10:49:00;97430.63;;;14.06;100.00
74346;BME280;62776;50.518;6.732;2022-10-19T10:51:47;97428.75;;;14.18;100.00
74346;BME280;62776;50.518;6.732;2022-10-19T10:54:36;97429.59;;;14.22;100.00
74346;BME280;62776;50.518;6.732;2022-10-19T10:57:24;97428.75;;;14.18;100.00
74346;BME280;62776;50.518;6.732;2022-10-19T11:00:19;97422.63;;;14.21;100.00
74346;BME280;62776;50.518;6.732;2022-10-19T11:03:21;97418.16;;;14.31;100.00
74346;BME280;62776;50.518;6.732;2022-10-19T11:06:09;97414.56;;;14.44;100.00
74346;BME280;62776;50.518;6.732;2022-10-19T11:09:27;97403.16;;;14.49;100.00
74346;BME280;62776;50.518;6.732;2022-10-19T11:12:15;97411.63;;;14.69;100.00
74346;BME280;62776;50.518;6.732;2022-10-19T11:18:21;97395.78;;;14.78;100.00
74346;BME280;62776;50.518;6.732;2022-10-19T11:21:10;97400.03;;;14.87;100.00
74346;BME280;62776;50.518;6.732;2022-10-19T11:24:06;97396.50;;;14.90;100.00
74346;BME280;62776;50.518;6.732;2022-10-19T11:27:09;97397.44;;;14.86;100.00
74346;BME280;62776;50.518;6.732;2022-10-19T11:30:14;97398.31;;;14.85;100.00
74346;BME280;62776;50.518;6.732;2022-10-19T11:33:21;97393.81;;;14.96;100.00
74346;BME280;62776;50.518;6.732;2022-10-19T11:36:45;97387.06;;;14.80;100.00
74346;BME280;62776;50.518;6.732;2022-10-19T11:40:01;97378.19;;;14.90;100.00
74346;BME280;62776;50.518;6.732;2022-10-19T11:43:11;97373.69;;;14.98;100.00
74346;BME280;62776;50.518;6.732;2022-10-19T12:01:58;97347.94;;;15.27;100.00
74346;BME280;62776;50.518;6.732;2022-10-19T12:04:50;97341.63;;;15.40;100.00
74346;BME280;62776;50.518;6.732;2022-10-19T12:10:58;97328.53;;;15.38;100.00
74346;BME280;62776;50.518;6.732;2022-10-19T12:13:54;97327.41;;;15.55;100.00
74346;BME280;62776;50.518;6.732;2022-10-19T12:16:47;97317.78;;;15.55;100.00
74346;BME280;62776;50.518;6.732;2022-10-19T12:19:57;97311.16;;;15.33;100.00
74346;BME280;62776;50.518;6.732;2022-10-19T12:22:45;97307.41;;;15.51;100.00
74346;BME280;62776;50.518;6.732;2022-10-19T12:25:34;97303.97;;;15.44;100.00
74346;BME280;62776;50.518;6.732;2022-10-19T12:28:29;97301.59;;;15.32;100.00
74346;BME280;62776;50.518;6.732;2022-10-19T12:31:17;97292.91;;;15.28;100.00
74346;BME280;62776;50.518;6.732;2022-10-19T12:34:09;97296.53;;;15.20;100.00
74346;BME280;62776;50.518;6.732;2022-10-19T12:43:42;97275.53;;;15.23;100.00
74346;BME280;62776;50.518;6.732;2022-10-19T12:46:42;97272.59;;;15.41;100.00
74346;BME280;62776;50.518;6.732;2022-10-19T12:52:44;97265.53;;;15.48;100.00
74346;BME280;62776;50.518;6.732;2022-10-19T12:55:33;97267.72;;;15.70;100.00
74346;BME280;62776;50.518;6.732;2022-10-19T12:58:22;97252.78;;;15.75;100.00
74346;BME280;62776;50.518;6.732;2022-10-19T13:04:24;97244.84;;;15.78;100.00
74346;BME280;62776;50.518;6.732;2022-10-19T13:07:17;97242.19;;;15.80;100.00
74346;BME280;62776;50.518;6.732;2022-10-19T13:10:04;97240.16;;;15.50;100.00
74346;BME280;62776;50.518;6.732;2022-10-19T13:12:52;97233.41;;;15.82;100.00
74346;BME280;62776;50.518;6.732;2022-10-19T13:21:52;97230.06;;;15.76;100.00
74346;BME280;62776;50.518;6.732;2022-10-19T13:24:39;97225.69;;;15.76;100.00
74346;BME280;62776;50.518;6.732;2022-10-19T13:27:26;97223.06;;;15.76;100.00
74346;BME280;62776;50.518;6.732;2022-10-19T13:36:16;97224.88;;;15.71;100.00
74346;BME280;62776;50.518;6.732;2022-10-19T13:39:04;97224.00;;;15.72;100.00
74346;BME280;62776;50.518;6.732;2022-10-19T13:41:55;97219.69;;;15.70;100.00
74346;BME280;62776;50.518;6.732;2022-10-19T13:44:44;97224.88;;;15.71;100.00
74346;BME280;62776;50.518;6.732;2022-10-19T13:47:38;97222.25;;;15.71;100.00
74346;BME280;62776;50.518;6.732;2022-10-19T13:50:43;97221.38;;;15.72;100.00
74346;BME280;62776;50.518;6.732;2022-10-19T14:00:22;97200.38;;;15.74;100.00
74346;BME280;62776;50.518;6.732;2022-10-19T14:06:26;97187.19;;;15.78;100.00
74346;BME280;62776;50.518;6.732;2022-10-19T14:12:23;97191.44;;;15.82;100.00
74346;BME280;62776;50.518;6.732;2022-10-19T14:15:25;97185.38;;;15.82;100.00
74346;BME280;62776;50.518;6.732;2022-10-19T14:18:30;97180.19;;;15.79;100.00
74346;BME280;62776;50.518;6.732;2022-10-19T14:21:31;97183.59;;;15.82;100.00
74346;BME280;62776;50.518;6.732;2022-10-19T14:24:26;97181.59;;;15.93;100.00
74346;BME280;62776;50.518;6.732;2022-10-19T14:27:21;97182.53;;;15.91;100.00
74346;BME280;62776;50.518;6.732;2022-10-19T14:30:21;97181.66;;;15.90;100.00
74346;BME280;62776;50.518;6.732;2022-10-19T14:33:10;97178.84;;;16.01;100.00
74346;BME280;62776;50.518;6.732;2022-10-19T14:35:59;97169.81;;;16.13;100.00
74346;BME280;62776;50.518;6.732;2022-10-19T14:38:48;97174.59;;;16.34;100.00
74346;BME280;62776;50.518;6.732;2022-10-19T14:41:37;97170.22;;;16.33;100.00
74346;BME280;62776;50.518;6.732;2022-10-19T14:44:41;97161.00;;;16.17;99.44
74346;BME280;62776;50.518;6.732;2022-10-19T14:47:28;97155.75;;;16.17;100.00
74346;BME280;62776;50.518;6.732;2022-10-19T14:50:15;97141.75;;;16.16;100.00
74346;BME280;62776;50.518;6.732;2022-10-19T14:56:31;97141.88;;;16.12;100.00
74346;BME280;62776;50.518;6.732;2022-10-19T14:59:24;97144.28;;;16.21;100.00
74346;BME280;62776;50.518;6.732;2022-10-19T15:02:20;97143.28;;;16.63;99.47
74346;BME280;62776;50.518;6.732;2022-10-19T15:05:24;97144.53;;;16.47;97.38
74346;BME280;62776;50.518;6.732;2022-10-19T15:08:34;97146.19;;;16.14;98.40
74346;BME280;62776;50.518;6.732;2022-10-19T15:11:48;97141.78;;;15.76;99.77
74346;BME280;62776;50.518;6.732;2022-10-19T15:14:35;97154.91;;;15.30;100.00
74346;BME280;62776;50.518;6.732;2022-10-19T15:17:28;97150.31;;;15.42;100.00
74346;BME280;62776;50.518;6.732;2022-10-19T15:20:33;97147.09;;;15.27;100.00
74346;BME280;62776;50.518;6.732;2022-10-19T15:29:20;97139.78;;;15.00;100.00
74346;BME280;62776;50.518;6.732;2022-10-19T15:32:22;97131.38;;;14.83;100.00
74346;BME280;62776;50.518;6.732;2022-10-19T15:41:01;97130.75;;;14.67;100.00
74346;BME280;62776;50.518;6.732;2022-10-19T15:43:50;97119.56;;;14.59;100.00
74346;BME280;62776;50.518;6.732;2022-10-19T15:52:32;97110.41;;;14.34;100.00
74346;BME280;62776;50.518;6.732;2022-10-19T15:55:18;97109.56;;;14.32;100.00
74346;BME280;62776;50.518;6.732;2022-10-19T15:58:05;97109.56;;;14.29;100.00
74346;BME280;62776;50.518;6.732;2022-10-19T16:00:51;97098.28;;;14.27;100.00
74346;BME280;62776;50.518;6.732;2022-10-19T16:03:37;97101.81;;;14.23;100.00
74346;BME280;62776;50.518;6.732;2022-10-19T16:06:28;97097.59;;;14.16;100.00
74346;BME280;62776;50.518;6.732;2022-10-19T16:09:20;97089.91;;;14.04;100.00
74346;BME280;62776;50.518;6.732;2022-10-19T16:12:10;97088.22;;;14.03;100.00
74346;BME280;62776;50.518;6.732;2022-10-19T16:14:56;97085.69;;;13.97;100.00
74346;BME280;62776;50.518;6.732;2022-10-19T16:17:43;97084.06;;;13.88;100.00
74346;BME280;62776;50.518;6.732;2022-10-19T16:20:32;97080.66;;;13.83;100.00
74346;BME280;62776;50.518;6.732;2022-10-19T16:23:18;97084.25;;;13.76;100.00
74346;BME280;62776;50.518;6.732;2022-10-19T16:26:05;97073.06;;;13.67;100.00
74346;BME280;62776;50.518;6.732;2022-10-19T16:28:52;97070.53;;;13.60;100.00
74346;BME280;62776;50.518;6.732;2022-10-19T16:31:39;97069.78;;;13.52;100.00
74346;BME280;62776;50.518;6.732;2022-10-19T16:34:25;97075.94;;;13.47;100.00
74346;BME280;62776;50.518;6.732;2022-10-19T16:37:11;97070.81;;;13.42;100.00
74346;BME280;62776;50.518;6.732;2022-10-19T16:39:57;97065.66;;;13.36;100.00
74346;BME280;62776;50.518;6.732;2022-10-19T16:42:43;97059.63;;;13.31;100.00
74346;BME280;62776;50.518;6.732;2022-10-19T16:45:29;97067.50;;;13.28;100.00
74346;BME280;62776;50.518;6.732;2022-10-19T16:48:16;97078.00;;;13.24;100.00
74346;BME280;62776;50.518;6.732;2022-10-19T16:53:56;97068.56;;;13.11;100.00
74346;BME280;62776;50.518;6.732;2022-10-19T16:56:45;97058.16;;;13.06;100.00
74346;BME280;62776;50.518;6.732;2022-10-19T16:59:31;97046.00;;;13.05;100.00
74346;BME280;62776;50.518;6.732;2022-10-19T17:02:21;97039.16;;;12.95;100.00
74346;BME280;62776;50.518;6.732;2022-10-19T17:05:08;97045.22;;;12.98;100.00
74346;BME280;62776;50.518;6.732;2022-10-19T17:07:54;97042.66;;;12.94;100.00